sensor_id;sensor_type;location;lat;lon;timestamp;pressure;altitude;pressure_sealevel;temperature;humidity
43818;BME280;29868;47.360;18.984;2023-02-01T00:01:48;100418.31;;;3.15;100.00
43818;BME280;29868;47.360;18.984;2023-02-01T00:04:13;100414.25;;;3.21;100.00
43818;BME280;29868;47.360;18.984;2023-02-01T00:06:39;100409.28;;;3.24;100.00
43818;BME280;29868;47.360;18.984;2023-02-01T00:09:04;100409.94;;;3.20;100.00
43818;BME280;29868;47.360;18.984;2023-02-01T00:11:30;100416.72;;;3.37;100.00
43818;BME280;29868;47.360;18.984;2023-02-01T00:13:56;100415.34;;;3.26;100.00
43818;BME280;29868;47.360;18.984;2023-02-01T00:16:25;100413.06;;;3.32;100.00
43818;BME280;29868;47.360;18.984;2023-02-01T00:18:55;100411.38;;;3.32;100.00
43818;BME280;29868;47.360;18.984;2023-02-01T00:21:21;100406.38;;;3.35;100.00
43818;BME280;29868;47.360;18.984;2023-02-01T00:23:46;100414.03;;;3.34;100.00
43818;BME280;29868;47.360;18.984;2023-02-01T00:26:18;100406.19;;;3.31;100.00
43818;BME280;29868;47.360;18.984;2023-02-01T00:28:45;100402.56;;;3.45;100.00
43818;BME280;29868;47.360;18.984;2023-02-01T00:31:10;100395.25;;;3.35;100.00
43818;BME280;29868;47.360;18.984;2023-02-01T00:33:36;100406.19;;;3.50;100.00
43818;BME280;29868;47.360;18.984;2023-02-01T00:36:04;100403.81;;;3.35;100.00
43818;BME280;29868;47.360;18.984;2023-02-01T00:38:30;100407.94;;;3.32;100.00
43818;BME280;29868;47.360;18.984;2023-02-01T00:41:06;100410.34;;;3.29;100.00
43818;BME280;29868;47.360;18.984;2023-02-01T00:43:33;100404.84;;;3.39;100.00
43818;BME280;29868;47.360;18.984;2023-02-01T00:45:59;100406.44;;;3.37;100.00
43818;BME280;29868;47.360;18.984;2023-02-01T00:48:25;100399.97;;;3.45;100.00
43818;BME280;29868;47.360;18.984;2023-02-01T00:50:51;100401.59;;;3.62;100.00
43818;BME280;29868;47.360;18.984;2023-02-01T00:53:16;100406.34;;;3.53;100.00
43818;BME280;29868;47.360;18.984;2023-02-01T00:55:46;100403.97;;;3.58;100.00
43818;BME280;29868;47.360;18.984;2023-02-01T00:58:12;100403.34;;;3.63;100.00
43818;BME280;29868;47.360;18.984;2023-02-01T01:00:37;100396.59;;;3.65;100.00
43818;BME280;29868;47.360;18.984;2023-02-01T01:03:03;100401.59;;;3.62;100.00
43818;BME280;29868;47.360;18.984;2023-02-01T01:05:51;100398.44;;;3.68;100.00
43818;BME280;29868;47.360;18.984;2023-02-01T01:08:21;100389.59;;;3.82;100.00
43818;BME280;29868;47.360;18.984;2023-02-01T01:10:47;100388.22;;;3.70;100.00
43818;BME280;29868;47.360;18.984;2023-02-01T01:13:12;100386.31;;;3.65;100.00
43818;BME280;29868;47.360;18.984;2023-02-01T01:15:39;100370.22;;;3.70;100.00
43818;BME280;29868;47.360;18.984;2023-02-01T01:18:05;100384.69;;;3.48;100.00
43818;BME280;29868;47.360;18.984;2023-02-01T01:20:31;100371.84;;;3.48;100.00
43818;BME280;29868;47.360;18.984;2023-02-01T01:22:59;100365.84;;;3.48;100.00
43818;BME280;29868;47.360;18.984;2023-02-01T01:25:24;100351.63;;;2.98;100.00
43818;BME280;29868;47.360;18.984;2023-02-01T01:27:50;100353.19;;;2.76;100.00
43818;BME280;29868;47.360;18.984;2023-02-01T01:30:15;100357.38;;;2.74;100.00
43818;BME280;29868;47.360;18.984;2023-02-01T01:32:41;100356.22;;;2.67;100.00
43818;BME280;29868;47.360;18.984;2023-02-01T01:35:07;100342.31;;;2.62;100.00
43818;BME280;29868;47.360;18.984;2023-02-01T01:37:32;100338.03;;;2.81;100.00
43818;BME280;29868;47.360;18.984;2023-02-01T01:39:57;100332.34;;;2.51;100.00
43818;BME280;29868;47.360;18.984;2023-02-01T01:42:23;100337.03;;;2.41;100.00
43818;BME280;29868;47.360;18.984;2023-02-01T01:45:08;100333.78;;;2.46;100.00
43818;BME280;29868;47.360;18.984;2023-02-01T01:47:44;100336.97;;;2.40;100.00
43818;BME280;29868;47.360;18.984;2023-02-01T01:50:16;100333.72;;;2.44;100.00
43818;BME280;29868;47.360;18.984;2023-02-01T01:52:43;100336.50;;;2.49;100.00
43818;BME280;29868;47.360;18.984;2023-02-01T01:55:13;100347.56;;;2.30;100.00
43818;BME280;29868;47.360;18.984;2023-02-01T01:57:42;100356.63;;;2.23;100.00
43818;BME280;29868;47.360;18.984;2023-02-01T02:00:14;100361.47;;;2.17;100.00
43818;BME280;29868;47.360;18.984;2023-02-01T02:02:43;100350.25;;;1.97;100.00
43818;BME280;29868;47.360;18.984;2023-02-01T02:05:10;100354.09;;;1.89;100.00
43818;BME280;29868;47.360;18.984;2023-02-01T02:07:40;100344.66;;;1.88;100.00
43818;BME280;29868;47.360;18.984;2023-02-01T02:10:09;100349.97;;;1.75;100.00
43818;BME280;29868;47.360;18.984;2023-02-01T02:12:39;100345.81;;;1.77;100.00
43818;BME280;29868;47.360;18.984;2023-02-01T02:15:09;100347.41;;;1.58;100.00
43818;BME280;29868;47.360;18.984;2023-02-01T02:17:43;100345.34;;;1.67;100.00
43818;BME280;29868;47.360;18.984;2023-02-01T02:38:33;100324.75;;;0.99;100.00
43818;BME280;29868;47.360;18.984;2023-02-01T02:44:00;100336.25;;;1.07;100.00
43818;BME280;29868;47.360;18.984;2023-02-01T02:46:49;100331.41;;;0.81;100.00
43818;BME280;29868;47.360;18.984;2023-02-01T02:49:43;100337.47;;;0.83;100.00
43818;BME280;29868;47.360;18.984;2023-02-01T02:52:37;100324.47;;;0.94;100.00
43818;BME280;29868;47.360;18.984;2023-02-01T02:55:23;100316.44;;;1.03;100.00
43818;BME280;29868;47.360;18.984;2023-02-01T02:57:50;100318.88;;;1.02;100.00
43818;BME280;29868;47.360;18.984;2023-02-01T03:00:35;100315.22;;;1.13;100.00
43818;BME280;29868;47.360;18.984;2023-02-01T03:03:20;100314.97;;;1.25;100.00
43818;BME280;29868;47.360;18.984;2023-02-01T03:06:12;100315.47;;;1.34;100.00
43818;BME280;29868;47.360;18.984;2023-02-01T03:08:38;100314.88;;;1.39;100.00
43818;BME280;29868;47.360;18.984;2023-02-01T03:11:09;100306.34;;;1.39;100.00
43818;BME280;29868;47.360;18.984;2023-02-01T03:13:43;100308.28;;;1.27;100.00
43818;BME280;29868;47.360;18.984;2023-02-01T03:24:15;100314.91;;;1.23;100.00
43818;BME280;29868;47.360;18.984;2023-02-01T03:26:48;100320.66;;;1.19;100.00
43818;BME280;29868;47.360;18.984;2023-02-01T03:29:18;100322.56;;;1.23;100.00
43818;BME280;29868;47.360;18.984;2023-02-01T03:31:45;100323.88;;;0.99;100.00
43818;BME280;29868;47.360;18.984;2023-02-01T03:34:12;100329.66;;;0.80;100.00
43818;BME280;29868;47.360;18.984;2023-02-01T03:36:57;100328.28;;;0.70;100.00
43818;BME280;29868;47.360;18.984;2023-02-01T03:42:05;100325.16;;;0.76;100.00
43818;BME280;29868;47.360;18.984;2023-02-01T03:44:42;100325.72;;;0.70;100.00
43818;BME280;29868;47.360;18.984;2023-02-01T03:47:18;100315.84;;;0.76;100.00
43818;BME280;29868;47.360;18.984;2023-02-01T03:49:49;100317.50;;;0.76;100.00
43818;BME280;29868;47.360;18.984;2023-02-01T03:52:39;100317.38;;;0.89;100.00
43818;BME280;29868;47.360;18.984;2023-02-01T03:55:07;100315.38;;;1.00;100.00
43818;BME280;29868;47.360;18.984;2023-02-01T03:57:37;100316.31;;;0.85;100.00
43818;BME280;29868;47.360;18.984;2023-02-01T04:00:20;100312.28;;;1.21;100.00
43818;BME280;29868;47.360;18.984;2023-02-01T04:02:47;100318.97;;;1.36;100.00
43818;BME280;29868;47.360;18.984;2023-02-01T04:05:12;100319.38;;;1.27;100.00
43818;BME280;29868;47.360;18.984;2023-02-01T04:07:38;100318.28;;;1.22;100.00
43818;BME280;29868;47.360;18.984;2023-02-01T04:10:04;100314.03;;;1.23;100.00
43818;BME280;29868;47.360;18.984;2023-02-01T04:12:29;100321.28;;;1.31;100.00
43818;BME280;29868;47.360;18.984;2023-02-01T04:14:55;100307.38;;;1.42;100.00
43818;BME280;29868;47.360;18.984;2023-02-01T04:17:20;100311.75;;;1.29;100.00
43818;BME280;29868;47.360;18.984;2023-02-01T04:19:46;100304.56;;;1.54;100.00
43818;BME280;29868;47.360;18.984;2023-02-01T04:22:11;100301.50;;;1.61;100.00
43818;BME280;29868;47.360;18.984;2023-02-01T04:24:37;100321.00;;;1.76;100.00
43818;BME280;29868;47.360;18.984;2023-02-01T04:27:03;100312.88;;;1.84;100.00
43818;BME280;29868;47.360;18.984;2023-02-01T04:29:28;100314.25;;;1.94;100.00
43818;BME280;29868;47.360;18.984;2023-02-01T04:31:54;100309.03;;;1.92;100.00
43818;BME280;29868;47.360;18.984;2023-02-01T04:34:19;100319.09;;;1.89;100.00
43818;BME280;29868;47.360;18.984;2023-02-01T04:36:44;100317.50;;;1.91;100.00
43818;BME280;29868;47.360;18.984;2023-02-01T04:39:10;100311.97;;;2.00;100.00
43818;BME280;29868;47.360;18.984;2023-02-01T04:41:35;100313.75;;;2.01;100.00
43818;BME280;29868;47.360;18.984;2023-02-01T04:44:01;100316.81;;;2.30;100.00
43818;BME280;29868;47.360;18.984;2023-02-01T04:46:26;100311.63;;;2.28;100.00
43818;BME280;29868;47.360;18.984;2023-02-01T04:48:51;100328.69;;;2.28;100.00
43818;BME280;29868;47.360;18.984;2023-02-01T04:51:17;100323.56;;;2.28;100.00
43818;BME280;29868;47.360;18.984;2023-02-01T04:53:43;100321.28;;;2.34;100.00
43818;BME280;29868;47.360;18.984;2023-02-01T04:56:09;100318.06;;;2.38;100.00
43818;BME280;29868;47.360;18.984;2023-02-01T04:58:34;100325.16;;;2.43;100.00
43818;BME280;29868;47.360;18.984;2023-02-01T05:01:02;100330.28;;;2.61;100.00
43818;BME280;29868;47.360;18.984;2023-02-01T05:03:30;100329.84;;;2.70;100.00
43818;BME280;29868;47.360;18.984;2023-02-01T05:05:55;100325.13;;;2.79;100.00
43818;BME280;29868;47.360;18.984;2023-02-01T05:08:21;100328.66;;;2.81;100.00
43818;BME280;29868;47.360;18.984;2023-02-01T05:10:48;100321.75;;;2.80;100.00
43818;BME280;29868;47.360;18.984;2023-02-01T05:13:13;100324.69;;;2.88;100.00
43818;BME280;29868;47.360;18.984;2023-02-01T05:15:57;100326.56;;;2.92;100.00
43818;BME280;29868;47.360;18.984;2023-02-01T05:18:23;100312.72;;;2.88;100.00
43818;BME280;29868;47.360;18.984;2023-02-01T05:20:48;100316.84;;;2.85;100.00
43818;BME280;29868;47.360;18.984;2023-02-01T05:23:13;100332.09;;;2.82;100.00
43818;BME280;29868;47.360;18.984;2023-02-01T05:25:39;100326.44;;;2.71;100.00
43818;BME280;29868;47.360;18.984;2023-02-01T05:28:04;100323.06;;;2.72;100.00
43818;BME280;29868;47.360;18.984;2023-02-01T05:30:29;100317.88;;;2.71;100.00
43818;BME280;29868;47.360;18.984;2023-02-01T05:32:55;100317.47;;;2.61;100.00
43818;BME280;29868;47.360;18.984;2023-02-01T05:35:20;100320.81;;;2.60;100.00
43818;BME280;29868;47.360;18.984;2023-02-01T05:37:46;100326.31;;;2.68;100.00
43818;BME280;29868;47.360;18.984;2023-02-01T05:40:11;100323.16;;;2.74;100.00
43818;BME280;29868;47.360;18.984;2023-02-01T05:42:37;100328.66;;;2.63;100.00
43818;BME280;29868;47.360;18.984;2023-02-01T05:45:03;100323.75;;;2.68;100.00
43818;BME280;29868;47.360;18.984;2023-02-01T05:47:30;100319.88;;;2.58;100.00
43818;BME280;29868;47.360;18.984;2023-02-01T05:49:56;100333.06;;;2.48;100.00
43818;BME280;29868;47.360;18.984;2023-02-01T05:52:22;100337.78;;;2.39;100.00
43818;BME280;29868;47.360;18.984;2023-02-01T05:54:47;100331.75;;;2.21;100.00
43818;BME280;29868;47.360;18.984;2023-02-01T05:57:13;100342.66;;;2.16;100.00
43818;BME280;29868;47.360;18.984;2023-02-01T05:59:38;100347.56;;;2.30;100.00
43818;BME280;29868;47.360;18.984;2023-02-01T06:02:07;100338.03;;;2.45;100.00
43818;BME280;29868;47.360;18.984;2023-02-01T06:04:32;100344.00;;;2.44;100.00
43818;BME280;29868;47.360;18.984;2023-02-01T06:06:58;100344.50;;;2.37;100.00
43818;BME280;29868;47.360;18.984;2023-02-01T06:09:23;100344.78;;;2.25;100.00
43818;BME280;29868;47.360;18.984;2023-02-01T06:11:48;100344.94;;;2.28;100.00
43818;BME280;29868;47.360;18.984;2023-02-01T06:14:14;100346.72;;;2.47;100.00
43818;BME280;29868;47.360;18.984;2023-02-01T06:16:39;100355.06;;;2.43;100.00
43818;BME280;29868;47.360;18.984;2023-02-01T06:19:05;100350.44;;;2.36;100.00
43818;BME280;29868;47.360;18.984;2023-02-01T06:21:30;100353.41;;;2.27;100.00
43818;BME280;29868;47.360;18.984;2023-02-01T06:23:55;100362.78;;;2.27;100.00
43818;BME280;29868;47.360;18.984;2023-02-01T06:26:22;100351.97;;;2.50;100.00
43818;BME280;29868;47.360;18.984;2023-02-01T06:28:48;100358.56;;;2.81;100.00
43818;BME280;29868;47.360;18.984;2023-02-01T06:31:14;100367.88;;;2.98;100.00
43818;BME280;29868;47.360;18.984;2023-02-01T06:33:40;100363.06;;;3.04;100.00
43818;BME280;29868;47.360;18.984;2023-02-01T06:36:07;100369.78;;;3.02;100.00
43818;BME280;29868;47.360;18.984;2023-02-01T06:38:33;100364.81;;;3.05;100.00
43818;BME280;29868;47.360;18.984;2023-02-01T06:41:00;100361.41;;;3.06;100.00
43818;BME280;29868;47.360;18.984;2023-02-01T06:43:26;100361.31;;;3.03;100.00
43818;BME280;29868;47.360;18.984;2023-02-01T06:45:53;100372.84;;;3.13;100.00
43818;BME280;29868;47.360;18.984;2023-02-01T06:48:19;100371.78;;;3.08;100.00
43818;BME280;29868;47.360;18.984;2023-02-01T06:50:44;100368.69;;;3.15;100.00
43818;BME280;29868;47.360;18.984;2023-02-01T06:53:10;100378.09;;;3.34;100.00
43818;BME280;29868;47.360;18.984;2023-02-01T06:55:35;100379.50;;;3.47;100.00
43818;BME280;29868;47.360;18.984;2023-02-01T06:58:01;100380.03;;;3.39;100.00
43818;BME280;29868;47.360;18.984;2023-02-01T07:00:28;100378.75;;;3.49;100.00
43818;BME280;29868;47.360;18.984;2023-02-01T07:02:53;100375.53;;;3.53;100.00
43818;BME280;29868;47.360;18.984;2023-02-01T07:05:19;100382.78;;;3.63;100.00
43818;BME280;29868;47.360;18.984;2023-02-01T07:07:44;100385.16;;;3.59;100.00
43818;BME280;29868;47.360;18.984;2023-02-01T07:10:10;100384.44;;;3.61;100.00
43818;BME280;29868;47.360;18.984;2023-02-01T07:12:36;100381.56;;;3.75;100.00
43818;BME280;29868;47.360;18.984;2023-02-01T07:15:02;100385.47;;;3.86;100.00
43818;BME280;29868;47.360;18.984;2023-02-01T07:17:28;100391.56;;;3.88;100.00
43818;BME280;29868;47.360;18.984;2023-02-01T07:19:55;100396.88;;;4.12;100.00
43818;BME280;29868;47.360;18.984;2023-02-01T07:22:20;100405.44;;;4.12;100.00
43818;BME280;29868;47.360;18.984;2023-02-01T07:24:46;100398.00;;;4.19;100.00
43818;BME280;29868;47.360;18.984;2023-02-01T07:27:11;100414.50;;;4.24;100.00
43818;BME280;29868;47.360;18.984;2023-02-01T07:29:37;100420.72;;;4.29;100.00
43818;BME280;29868;47.360;18.984;2023-02-01T07:32:02;100430.81;;;4.45;100.00
43818;BME280;29868;47.360;18.984;2023-02-01T07:34:28;100425.03;;;4.51;100.00
43818;BME280;29868;47.360;18.984;2023-02-01T07:36:55;100426.31;;;4.60;100.00
43818;BME280;29868;47.360;18.984;2023-02-01T07:39:20;100423.00;;;4.63;100.00
43818;BME280;29868;47.360;18.984;2023-02-01T07:41:46;100425.03;;;4.72;100.00
43818;BME280;29868;47.360;18.984;2023-02-01T07:44:11;100428.06;;;4.82;100.00
43818;BME280;29868;47.360;18.984;2023-02-01T07:46:37;100421.69;;;4.95;100.00
43818;BME280;29868;47.360;18.984;2023-02-01T07:49:04;100419.56;;;5.07;100.00
43818;BME280;29868;47.360;18.984;2023-02-01T07:51:29;100407.53;;;5.06;100.00
43818;BME280;29868;47.360;18.984;2023-02-01T07:53:55;100409.34;;;5.31;100.00
43818;BME280;29868;47.360;18.984;2023-02-01T07:56:20;100405.41;;;5.41;100.00
43818;BME280;29868;47.360;18.984;2023-02-01T07:58:52;100415.06;;;5.47;100.00
43818;BME280;29868;47.360;18.984;2023-02-01T08:01:24;100420.69;;;5.60;100.00
43818;BME280;29868;47.360;18.984;2023-02-01T08:03:55;100409.44;;;5.81;100.00
43818;BME280;29868;47.360;18.984;2023-02-01T08:06:22;100414.91;;;5.90;100.00
43818;BME280;29868;47.360;18.984;2023-02-01T08:08:49;100413.50;;;5.98;100.00
43818;BME280;29868;47.360;18.984;2023-02-01T08:11:16;100411.38;;;6.11;100.00
43818;BME280;29868;47.360;18.984;2023-02-01T08:13:42;100413.09;;;6.12;100.00
43818;BME280;29868;47.360;18.984;2023-02-01T08:16:09;100418.03;;;6.29;100.00
43818;BME280;29868;47.360;18.984;2023-02-01T08:18:36;100427.16;;;6.45;100.00
43818;BME280;29868;47.360;18.984;2023-02-01T08:21:24;100426.09;;;6.40;100.00
43818;BME280;29868;47.360;18.984;2023-02-01T08:23:50;100440.66;;;6.64;100.00
43818;BME280;29868;47.360;18.984;2023-02-01T08:26:18;100453.75;;;6.70;100.00
43818;BME280;29868;47.360;18.984;2023-02-01T08:28:50;100458.28;;;6.77;100.00
43818;BME280;29868;47.360;18.984;2023-02-01T08:31:18;100458.50;;;6.83;100.00
43818;BME280;29868;47.360;18.984;2023-02-01T08:33:49;100467.63;;;6.73;100.00
43818;BME280;29868;47.360;18.984;2023-02-01T08:36:15;100469.97;;;6.66;100.00
43818;BME280;29868;47.360;18.984;2023-02-01T08:38:41;100475.44;;;6.75;100.00
43818;BME280;29868;47.360;18.984;2023-02-01T08:41:11;100475.38;;;7.00;100.00
43818;BME280;29868;47.360;18.984;2023-02-01T08:43:38;100471.81;;;6.97;100.00
43818;BME280;29868;47.360;18.984;2023-02-01T08:46:04;100477.09;;;7.00;100.00
43818;BME280;29868;47.360;18.984;2023-02-01T08:48:31;100469.47;;;7.04;100.00
43818;BME280;29868;47.360;18.984;2023-02-01T08:50:56;100459.56;;;7.17;100.00
43818;BME280;29868;47.360;18.984;2023-02-01T08:53:22;100451.94;;;7.21;100.00
43818;BME280;29868;47.360;18.984;2023-02-01T08:55:48;100448.41;;;7.19;100.00
43818;BME280;29868;47.360;18.984;2023-02-01T08:58:14;100445.50;;;7.36;100.00
43818;BME280;29868;47.360;18.984;2023-02-01T09:00:42;100453.00;;;7.28;100.00
43818;BME280;29868;47.360;18.984;2023-02-01T09:03:10;100447.84;;;7.28;100.00
43818;BME280;29868;47.360;18.984;2023-02-01T09:05:36;100440.22;;;7.32;100.00
43818;BME280;29868;47.360;18.984;2023-02-01T09:08:02;100430.09;;;7.39;100.00
43818;BME280;29868;47.360;18.984;2023-02-01T09:10:29;100433.63;;;7.14;100.00
43818;BME280;29868;47.360;18.984;2023-02-01T09:12:55;100426.72;;;7.13;100.00
43818;BME280;29868;47.360;18.984;2023-02-01T09:15:20;100414.59;;;7.12;100.00
43818;BME280;29868;47.360;18.984;2023-02-01T09:17:46;100414.59;;;7.12;100.00
43818;BME280;29868;47.360;18.984;2023-02-01T09:20:11;100426.41;;;7.03;100.00
43818;BME280;29868;47.360;18.984;2023-02-01T09:22:38;100425.44;;;7.00;100.00
43818;BME280;29868;47.360;18.984;2023-02-01T09:25:03;100427.84;;;6.94;100.00
43818;BME280;29868;47.360;18.984;2023-02-01T09:27:29;100418.53;;;6.99;100.00
43818;BME280;29868;47.360;18.984;2023-02-01T09:29:54;100417.19;;;7.12;100.00
43818;BME280;29868;47.360;18.984;2023-02-01T09:32:21;100420.09;;;7.22;100.00
43818;BME280;29868;47.360;18.984;2023-02-01T09:34:48;100433.88;;;7.23;100.00
43818;BME280;29868;47.360;18.984;2023-02-01T09:37:14;100437.53;;;7.29;100.00
43818;BME280;29868;47.360;18.984;2023-02-01T09:39:40;100442.94;;;7.37;100.00
43818;BME280;29868;47.360;18.984;2023-02-01T09:42:16;100438.94;;;7.47;100.00
43818;BME280;29868;47.360;18.984;2023-02-01T09:47:21;100438.50;;;7.92;100.00
43818;BME280;29868;47.360;18.984;2023-02-01T09:52:25;100446.81;;;7.51;100.00
43818;BME280;29868;47.360;18.984;2023-02-01T09:54:57;100442.06;;;7.37;100.00
43818;BME280;29868;47.360;18.984;2023-02-01T09:58:07;100443.47;;;7.27;100.00
43818;BME280;29868;47.360;18.984;2023-02-01T10:00:28;100443.66;;;7.04;100.00
43818;BME280;29868;47.360;18.984;2023-02-01T10:02:55;100436.97;;;6.82;100.00
43818;BME280;29868;47.360;18.984;2023-02-01T10:10:45;100423.06;;;7.06;100.00
43818;BME280;29868;47.360;18.984;2023-02-01T10:16:21;100406.75;;;7.37;100.00
43818;BME280;29868;47.360;18.984;2023-02-01T10:21:58;100387.38;;;8.15;100.00
43818;BME280;29868;47.360;18.984;2023-02-01T10:27:37;100362.31;;;8.47;100.00
43818;BME280;29868;47.360;18.984;2023-02-01T10:30:19;100357.13;;;8.47;100.00
43818;BME280;29868;47.360;18.984;2023-02-01T10:32:47;100359.38;;;8.35;100.00
43818;BME280;29868;47.360;18.984;2023-02-01T10:35:21;100354.78;;;7.90;100.00
43818;BME280;29868;47.360;18.984;2023-02-01T10:37:48;100352.84;;;7.81;100.00
43818;BME280;29868;47.360;18.984;2023-02-01T10:40:23;100350.84;;;7.71;100.00
43818;BME280;29868;47.360;18.984;2023-02-01T10:42:51;100347.59;;;7.78;100.00
43818;BME280;29868;47.360;18.984;2023-02-01T10:45:21;100354.78;;;7.88;100.00
43818;BME280;29868;47.360;18.984;2023-02-01T10:47:49;100346.06;;;7.86;100.00
43818;BME280;29868;47.360;18.984;2023-02-01T10:55:48;100352.69;;;8.41;100.00
43818;BME280;29868;47.360;18.984;2023-02-01T11:00:51;100354.81;;;8.59;100.00
43818;BME280;29868;47.360;18.984;2023-02-01T11:05:56;100353.84;;;8.54;100.00
43818;BME280;29868;47.360;18.984;2023-02-01T11:08:21;100343.78;;;8.32;100.00
43818;BME280;29868;47.360;18.984;2023-02-01T11:10:47;100339.38;;;8.27;100.00
43818;BME280;29868;47.360;18.984;2023-02-01T11:13:28;100342.84;;;8.28;100.00
43818;BME280;29868;47.360;18.984;2023-02-01T11:15:56;100336.88;;;8.32;100.00
43818;BME280;29868;47.360;18.984;2023-02-01T11:18:28;100326.72;;;8.38;100.00
43818;BME280;29868;47.360;18.984;2023-02-01T11:20:54;100317.25;;;8.39;100.00
43818;BME280;29868;47.360;18.984;2023-02-01T11:23:25;100319.81;;;8.37;100.00
43818;BME280;29868;47.360;18.984;2023-02-01T11:25:54;100318.97;;;8.38;100.00
43818;BME280;29868;47.360;18.984;2023-02-01T11:28:23;100306.88;;;8.37;100.00
43818;BME280;29868;47.360;18.984;2023-02-01T11:30:53;100310.38;;;8.41;100.00
43818;BME280;29868;47.360;18.984;2023-02-01T11:33:24;100302.34;;;8.30;100.00
43818;BME280;29868;47.360;18.984;2023-02-01T11:35:52;100286.28;;;8.43;100.00
43818;BME280;29868;47.360;18.984;2023-02-01T11:40:50;100286.84;;;8.32;100.00
43818;BME280;29868;47.360;18.984;2023-02-01T11:45:41;100288.28;;;8.55;100.00
43818;BME280;29868;47.360;18.984;2023-02-01T11:48:18;100275.75;;;8.75;100.00
43818;BME280;29868;47.360;18.984;2023-02-01T12:07:02;100262.53;;;6.92;100.00
43818;BME280;29868;47.360;18.984;2023-02-01T12:12:41;100267.00;;;6.68;100.00
43818;BME280;29868;47.360;18.984;2023-02-01T12:42:10;100306.75;;;5.20;100.00
43818;BME280;29868;47.360;18.984;2023-02-01T12:44:53;100298.47;;;5.04;100.00
43818;BME280;29868;47.360;18.984;2023-02-01T12:47:33;100293.91;;;4.97;100.00
43818;BME280;29868;47.360;18.984;2023-02-01T12:50:04;100290.34;;;4.94;100.00
43818;BME280;29868;47.360;18.984;2023-02-01T12:52:51;100280.53;;;5.07;100.00
43818;BME280;29868;47.360;18.984;2023-02-01T12:55:39;100271.06;;;5.06;100.00
43818;BME280;29868;47.360;18.984;2023-02-01T12:58:14;100258.31;;;5.09;100.00
43818;BME280;29868;47.360;18.984;2023-02-01T13:00:44;100253.75;;;5.26;100.00
43818;BME280;29868;47.360;18.984;2023-02-01T13:05:51;100249.53;;;5.28;100.00
43818;BME280;29868;47.360;18.984;2023-02-01T13:08:24;100249.47;;;5.51;100.00
43818;BME280;29868;47.360;18.984;2023-02-01T13:11:30;100249.44;;;5.49;100.00
43818;BME280;29868;47.360;18.984;2023-02-01T13:17:03;100227.19;;;5.53;100.00
43818;BME280;29868;47.360;18.984;2023-02-01T13:19:52;100233.91;;;5.48;100.00
43818;BME280;29868;47.360;18.984;2023-02-01T13:22:32;100231.69;;;5.58;100.00
43818;BME280;29868;47.360;18.984;2023-02-01T13:25:20;100235.97;;;5.58;100.00
43818;BME280;29868;47.360;18.984;2023-02-01T13:27:50;100221.25;;;5.54;100.00
43818;BME280;29868;47.360;18.984;2023-02-01T13:30:42;100223.81;;;5.54;100.00
43818;BME280;29868;47.360;18.984;2023-02-01T13:33:17;100234.59;;;5.42;100.00
43818;BME280;29868;47.360;18.984;2023-02-01T13:35:57;100225.81;;;5.37;100.00
43818;BME280;29868;47.360;18.984;2023-02-01T13:43:48;100223.13;;;5.34;100.00
43818;BME280;29868;47.360;18.984;2023-02-01T13:46:16;100235.84;;;5.29;100.00
43818;BME280;29868;47.360;18.984;2023-02-01T13:48:51;100235.06;;;5.32;100.00
43818;BME280;29868;47.360;18.984;2023-02-01T13:51:53;100236.72;;;5.30;100.00
43818;BME280;29868;47.360;18.984;2023-02-01T13:54:47;100233.13;;;5.25;100.00
43818;BME280;29868;47.360;18.984;2023-02-01T13:57:36;100225.53;;;5.29;100.00
43818;BME280;29868;47.360;18.984;2023-02-01T14:00:09;100229.69;;;5.26;100.00
43818;BME280;29868;47.360;18.984;2023-02-01T14:21:24;100209.06;;;5.24;100.00
43818;BME280;29868;47.360;18.984;2023-02-01T14:26:49;100211.78;;;5.29;100.00
43818;BME280;29868;47.360;18.984;2023-02-01T14:36:59;100219.44;;;5.51;100.00
43818;BME280;29868;47.360;18.984;2023-02-01T14:39:35;100217.47;;;5.70;100.00
43818;BME280;29868;47.360;18.984;2023-02-01T14:42:06;100214.75;;;5.65;100.00
43818;BME280;29868;47.360;18.984;2023-02-01T14:44:39;100219.03;;;5.65;100.00
43818;BME280;29868;47.360;18.984;2023-02-01T14:47:25;100213.44;;;5.52;100.00
43818;BME280;29868;47.360;18.984;2023-02-01T14:52:41;100220.97;;;5.46;100.00
43818;BME280;29868;47.360;18.984;2023-02-01T14:55:37;100218.28;;;5.43;100.00
43818;BME280;29868;47.360;18.984;2023-02-01T14:58:06;100225.09;;;5.41;100.00
43818;BME280;29868;47.360;18.984;2023-02-01T15:00:51;100230.56;;;5.50;100.00
43818;BME280;29868;47.360;18.984;2023-02-01T15:09:08;100226.16;;;5.48;100.00
43818;BME280;29868;47.360;18.984;2023-02-01T15:14:22;100230.44;;;5.47;100.00
43818;BME280;29868;47.360;18.984;2023-02-01T15:16:47;100216.47;;;5.41;100.00
43818;BME280;29868;47.360;18.984;2023-02-01T15:19:20;100213.78;;;5.37;100.00
43818;BME280;29868;47.360;18.984;2023-02-01T15:21:49;100216.44;;;5.39;100.00
43818;BME280;29868;47.360;18.984;2023-02-01T15:24:27;100214.84;;;5.43;100.00
43818;BME280;29868;47.360;18.984;2023-02-01T15:26:54;100215.66;;;5.42;100.00
43818;BME280;29868;47.360;18.984;2023-02-01T15:29:21;100214.22;;;5.50;100.00
43818;BME280;29868;47.360;18.984;2023-02-01T15:31:50;100217.47;;;5.44;100.00
43818;BME280;29868;47.360;18.984;2023-02-01T15:34:16;100213.03;;;5.40;100.00
43818;BME280;29868;47.360;18.984;2023-02-01T15:36:43;100219.88;;;5.40;100.00
43818;BME280;29868;47.360;18.984;2023-02-01T15:39:20;100225.88;;;5.39;100.00